sensor_id;sensor_type;location;lat;lon;timestamp;P1;durP1;ratioP1;P2;durP2;ratioP2
59207;SDS011;44977;53.132;6.408;2023-05-29T00:03:34;14.00;;;3.42;;
59207;SDS011;44977;53.132;6.408;2023-05-29T00:08:34;14.05;;;3.65;;
59207;SDS011;44977;53.132;6.408;2023-05-29T00:13:35;12.70;;;3.30;;
59207;SDS011;44977;53.132;6.408;2023-05-29T00:18:36;12.15;;;3.33;;
59207;SDS011;44977;53.132;6.408;2023-05-29T00:23:44;15.05;;;3.58;;
59207;SDS011;44977;53.132;6.408;2023-05-29T00:28:45;13.75;;;3.65;;
59207;SDS011;44977;53.132;6.408;2023-05-29T00:33:46;13.23;;;3.50;;
59207;SDS011;44977;53.132;6.408;2023-05-29T00:38:46;14.27;;;3.75;;
59207;SDS011;44977;53.132;6.408;2023-05-29T00:43:47;14.98;;;3.67;;
59207;SDS011;44977;53.132;6.408;2023-05-29T00:48:48;14.60;;;3.45;;
59207;SDS011;44977;53.132;6.408;2023-05-29T00:53:49;13.65;;;3.60;;
59207;SDS011;44977;53.132;6.408;2023-05-29T00:58:51;10.70;;;3.08;;
59207;SDS011;44977;53.132;6.408;2023-05-29T01:03:53;13.60;;;3.55;;
59207;SDS011;44977;53.132;6.408;2023-05-29T01:08:57;15.73;;;3.60;;
59207;SDS011;44977;53.132;6.408;2023-05-29T01:13:58;18.60;;;3.75;;
59207;SDS011;44977;53.132;6.408;2023-05-29T01:19:46;14.02;;;3.55;;
59207;SDS011;44977;53.132;6.408;2023-05-29T01:24:48;13.05;;;3.22;;
59207;SDS011;44977;53.132;6.408;2023-05-29T01:29:56;11.65;;;3.45;;
59207;SDS011;44977;53.132;6.408;2023-05-29T01:34:58;16.77;;;3.55;;
59207;SDS011;44977;53.132;6.408;2023-05-29T01:39:59;13.68;;;3.90;;
59207;SDS011;44977;53.132;6.408;2023-05-29T01:45:01;15.82;;;4.30;;
59207;SDS011;44977;53.132;6.408;2023-05-29T01:50:04;12.43;;;3.45;;
59207;SDS011;44977;53.132;6.408;2023-05-29T01:55:06;14.80;;;3.80;;
59207;SDS011;44977;53.132;6.408;2023-05-29T02:00:07;17.73;;;4.68;;
59207;SDS011;44977;53.132;6.408;2023-05-29T02:05:09;15.27;;;4.45;;
59207;SDS011;44977;53.132;6.408;2023-05-29T02:10:09;14.38;;;3.97;;
59207;SDS011;44977;53.132;6.408;2023-05-29T02:15:10;16.80;;;4.10;;
59207;SDS011;44977;53.132;6.408;2023-05-29T02:20:11;13.07;;;3.75;;
59207;SDS011;44977;53.132;6.408;2023-05-29T02:25:12;15.10;;;3.75;;
59207;SDS011;44977;53.132;6.408;2023-05-29T02:30:12;16.85;;;3.80;;
59207;SDS011;44977;53.132;6.408;2023-05-29T02:35:13;16.90;;;4.07;;
59207;SDS011;44977;53.132;6.408;2023-05-29T02:40:15;15.82;;;4.03;;
59207;SDS011;44977;53.132;6.408;2023-05-29T02:45:16;15.35;;;4.10;;
59207;SDS011;44977;53.132;6.408;2023-05-29T02:50:18;14.18;;;4.28;;
59207;SDS011;44977;53.132;6.408;2023-05-29T02:55:18;14.93;;;3.83;;
59207;SDS011;44977;53.132;6.408;2023-05-29T03:00:19;15.30;;;3.67;;
59207;SDS011;44977;53.132;6.408;2023-05-29T03:05:20;12.90;;;4.00;;
59207;SDS011;44977;53.132;6.408;2023-05-29T03:10:21;13.77;;;3.50;;
59207;SDS011;44977;53.132;6.408;2023-05-29T03:15:22;15.85;;;3.88;;
59207;SDS011;44977;53.132;6.408;2023-05-29T03:20:22;12.32;;;2.97;;
59207;SDS011;44977;53.132;6.408;2023-05-29T03:25:23;15.13;;;3.60;;
59207;SDS011;44977;53.132;6.408;2023-05-29T03:30:24;15.82;;;4.03;;
59207;SDS011;44977;53.132;6.408;2023-05-29T03:35:25;17.42;;;4.25;;
59207;SDS011;44977;53.132;6.408;2023-05-29T03:40:25;14.32;;;3.67;;
59207;SDS011;44977;53.132;6.408;2023-05-29T03:45:26;13.60;;;3.83;;
59207;SDS011;44977;53.132;6.408;2023-05-29T03:50:27;12.70;;;3.22;;
59207;SDS011;44977;53.132;6.408;2023-05-29T03:55:27;13.05;;;3.08;;
59207;SDS011;44977;53.132;6.408;2023-05-29T04:00:28;13.63;;;3.60;;
59207;SDS011;44977;53.132;6.408;2023-05-29T04:05:29;17.42;;;3.90;;
59207;SDS011;44977;53.132;6.408;2023-05-29T04:10:29;13.90;;;3.90;;
59207;SDS011;44977;53.132;6.408;2023-05-29T04:15:33;12.98;;;3.33;;
59207;SDS011;44977;53.132;6.408;2023-05-29T04:20:34;18.42;;;4.47;;
59207;SDS011;44977;53.132;6.408;2023-05-29T04:25:35;15.63;;;3.92;;
59207;SDS011;44977;53.132;6.408;2023-05-29T04:30:36;14.52;;;3.80;;
59207;SDS011;44977;53.132;6.408;2023-05-29T04:35:37;13.73;;;3.30;;
59207;SDS011;44977;53.132;6.408;2023-05-29T04:40:38;16.75;;;3.90;;
59207;SDS011;44977;53.132;6.408;2023-05-29T04:45:40;11.90;;;3.05;;
59207;SDS011;44977;53.132;6.408;2023-05-29T04:50:41;15.38;;;3.60;;
59207;SDS011;44977;53.132;6.408;2023-05-29T04:55:42;13.73;;;3.55;;
59207;SDS011;44977;53.132;6.408;2023-05-29T05:00:43;16.40;;;4.65;;
59207;SDS011;44977;53.132;6.408;2023-05-29T05:05:44;19.25;;;3.83;;
59207;SDS011;44977;53.132;6.408;2023-05-29T05:10:44;11.68;;;3.15;;
59207;SDS011;44977;53.132;6.408;2023-05-29T05:15:45;13.40;;;3.78;;
59207;SDS011;44977;53.132;6.408;2023-05-29T05:20:46;14.88;;;3.83;;
59207;SDS011;44977;53.132;6.408;2023-05-29T05:25:46;14.38;;;4.18;;
59207;SDS011;44977;53.132;6.408;2023-05-29T05:30:47;16.38;;;4.15;;
59207;SDS011;44977;53.132;6.408;2023-05-29T05:35:48;15.48;;;4.07;;
59207;SDS011;44977;53.132;6.408;2023-05-29T05:40:48;15.27;;;4.13;;
59207;SDS011;44977;53.132;6.408;2023-05-29T05:45:49;16.50;;;4.28;;
59207;SDS011;44977;53.132;6.408;2023-05-29T05:50:50;16.95;;;4.50;;
59207;SDS011;44977;53.132;6.408;2023-05-29T05:55:51;19.13;;;4.43;;
59207;SDS011;44977;53.132;6.408;2023-05-29T06:00:51;17.83;;;3.92;;
59207;SDS011;44977;53.132;6.408;2023-05-29T06:05:52;14.40;;;3.97;;
59207;SDS011;44977;53.132;6.408;2023-05-29T06:10:54;17.00;;;4.25;;
59207;SDS011;44977;53.132;6.408;2023-05-29T06:15:55;16.13;;;4.78;;
59207;SDS011;44977;53.132;6.408;2023-05-29T06:20:56;13.40;;;4.50;;
59207;SDS011;44977;53.132;6.408;2023-05-29T06:25:56;18.70;;;4.97;;
59207;SDS011;44977;53.132;6.408;2023-05-29T06:30:57;17.52;;;5.03;;
59207;SDS011;44977;53.132;6.408;2023-05-29T06:35:58;19.63;;;5.35;;
59207;SDS011;44977;53.132;6.408;2023-05-29T06:40:58;17.02;;;4.53;;
59207;SDS011;44977;53.132;6.408;2023-05-29T06:45:59;19.27;;;5.10;;
59207;SDS011;44977;53.132;6.408;2023-05-29T06:51:00;14.05;;;4.30;;
59207;SDS011;44977;53.132;6.408;2023-05-29T06:56:01;18.63;;;4.70;;
59207;SDS011;44977;53.132;6.408;2023-05-29T07:01:02;18.50;;;5.00;;
59207;SDS011;44977;53.132;6.408;2023-05-29T07:06:03;16.83;;;4.80;;
59207;SDS011;44977;53.132;6.408;2023-05-29T07:11:04;17.85;;;4.75;;
59207;SDS011;44977;53.132;6.408;2023-05-29T07:16:05;14.93;;;4.00;;
59207;SDS011;44977;53.132;6.408;2023-05-29T07:21:06;16.38;;;4.40;;
59207;SDS011;44977;53.132;6.408;2023-05-29T07:26:07;16.52;;;4.10;;
59207;SDS011;44977;53.132;6.408;2023-05-29T07:31:07;16.75;;;4.55;;
59207;SDS011;44977;53.132;6.408;2023-05-29T07:36:08;18.17;;;4.72;;
59207;SDS011;44977;53.132;6.408;2023-05-29T07:41:09;17.80;;;5.00;;
59207;SDS011;44977;53.132;6.408;2023-05-29T07:46:10;20.35;;;4.47;;
59207;SDS011;44977;53.132;6.408;2023-05-29T07:51:10;16.70;;;4.50;;
59207;SDS011;44977;53.132;6.408;2023-05-29T07:56:11;16.23;;;4.28;;
59207;SDS011;44977;53.132;6.408;2023-05-29T08:01:12;16.30;;;4.72;;
59207;SDS011;44977;53.132;6.408;2023-05-29T08:06:13;16.25;;;4.53;;
59207;SDS011;44977;53.132;6.408;2023-05-29T08:11:14;18.00;;;4.80;;
59207;SDS011;44977;53.132;6.408;2023-05-29T08:16:15;14.45;;;3.85;;
59207;SDS011;44977;53.132;6.408;2023-05-29T08:21:16;15.82;;;4.75;;
59207;SDS011;44977;53.132;6.408;2023-05-29T08:26:17;15.48;;;4.60;;
59207;SDS011;44977;53.132;6.408;2023-05-29T08:31:18;16.02;;;4.53;;
59207;SDS011;44977;53.132;6.408;2023-05-29T08:36:19;14.15;;;4.35;;
59207;SDS011;44977;53.132;6.408;2023-05-29T08:46:44;16.33;;;4.35;;
59207;SDS011;44977;53.132;6.408;2023-05-29T08:51:46;16.42;;;4.18;;
59207;SDS011;44977;53.132;6.408;2023-05-29T08:56:50;17.92;;;4.65;;
59207;SDS011;44977;53.132;6.408;2023-05-29T09:01:51;15.38;;;4.30;;
59207;SDS011;44977;53.132;6.408;2023-05-29T09:06:51;16.92;;;4.20;;
59207;SDS011;44977;53.132;6.408;2023-05-29T09:11:55;17.83;;;4.35;;
59207;SDS011;44977;53.132;6.408;2023-05-29T09:16:56;13.90;;;4.57;;
59207;SDS011;44977;53.132;6.408;2023-05-29T09:22:18;13.07;;;4.38;;
59207;SDS011;44977;53.132;6.408;2023-05-29T09:27:18;15.18;;;3.75;;
59207;SDS011;44977;53.132;6.408;2023-05-29T09:32:20;16.33;;;4.82;;
59207;SDS011;44977;53.132;6.408;2023-05-29T09:37:21;13.82;;;3.95;;
59207;SDS011;44977;53.132;6.408;2023-05-29T09:42:22;17.25;;;4.57;;
59207;SDS011;44977;53.132;6.408;2023-05-29T09:47:24;17.63;;;4.85;;
59207;SDS011;44977;53.132;6.408;2023-05-29T09:52:26;16.23;;;4.82;;
59207;SDS011;44977;53.132;6.408;2023-05-29T09:57:30;16.70;;;4.85;;
59207;SDS011;44977;53.132;6.408;2023-05-29T10:02:31;18.45;;;4.63;;
59207;SDS011;44977;53.132;6.408;2023-05-29T10:07:34;17.60;;;4.93;;
59207;SDS011;44977;53.132;6.408;2023-05-29T10:12:37;14.18;;;5.05;;
59207;SDS011;44977;53.132;6.408;2023-05-29T10:17:51;13.60;;;3.95;;
59207;SDS011;44977;53.132;6.408;2023-05-29T10:23:04;15.40;;;4.05;;
59207;SDS011;44977;53.132;6.408;2023-05-29T10:28:06;17.05;;;4.30;;
59207;SDS011;44977;53.132;6.408;2023-05-29T10:38:29;16.23;;;4.50;;
59207;SDS011;44977;53.132;6.408;2023-05-29T10:43:31;14.65;;;3.90;;
59207;SDS011;44977;53.132;6.408;2023-05-29T10:48:36;15.68;;;4.20;;
59207;SDS011;44977;53.132;6.408;2023-05-29T10:53:37;13.82;;;3.80;;
59207;SDS011;44977;53.132;6.408;2023-05-29T10:58:41;13.23;;;4.18;;
59207;SDS011;44977;53.132;6.408;2023-05-29T11:03:41;16.65;;;4.72;;
59207;SDS011;44977;53.132;6.408;2023-05-29T11:13:56;15.68;;;3.80;;
59207;SDS011;44977;53.132;6.408;2023-05-29T11:19:04;15.75;;;4.25;;
59207;SDS011;44977;53.132;6.408;2023-05-29T11:24:06;15.07;;;4.03;;
59207;SDS011;44977;53.132;6.408;2023-05-29T11:29:07;13.32;;;3.80;;
59207;SDS011;44977;53.132;6.408;2023-05-29T11:34:13;15.77;;;3.85;;
59207;SDS011;44977;53.132;6.408;2023-05-29T11:39:15;14.18;;;3.97;;
59207;SDS011;44977;53.132;6.408;2023-05-29T11:44:16;16.33;;;3.88;;
59207;SDS011;44977;53.132;6.408;2023-05-29T11:49:27;15.13;;;3.95;;
59207;SDS011;44977;53.132;6.408;2023-05-29T11:54:32;16.05;;;3.85;;
59207;SDS011;44977;53.132;6.408;2023-05-29T11:59:34;14.40;;;3.80;;
59207;SDS011;44977;53.132;6.408;2023-05-29T12:04:35;12.48;;;3.90;;
59207;SDS011;44977;53.132;6.408;2023-05-29T12:09:36;14.02;;;3.67;;
59207;SDS011;44977;53.132;6.408;2023-05-29T12:14:37;12.93;;;3.70;;
59207;SDS011;44977;53.132;6.408;2023-05-29T12:19:37;14.13;;;3.63;;
59207;SDS011;44977;53.132;6.408;2023-05-29T12:24:38;10.85;;;3.22;;
59207;SDS011;44977;53.132;6.408;2023-05-29T12:29:39;13.43;;;3.85;;
59207;SDS011;44977;53.132;6.408;2023-05-29T12:34:39;11.93;;;3.60;;
59207;SDS011;44977;53.132;6.408;2023-05-29T12:39:41;16.77;;;4.10;;
59207;SDS011;44977;53.132;6.408;2023-05-29T12:44:42;13.93;;;4.18;;
59207;SDS011;44977;53.132;6.408;2023-05-29T12:49:43;15.40;;;4.18;;
59207;SDS011;44977;53.132;6.408;2023-05-29T12:54:43;13.85;;;3.85;;
59207;SDS011;44977;53.132;6.408;2023-05-29T12:59:44;13.02;;;3.88;;
59207;SDS011;44977;53.132;6.408;2023-05-29T13:04:45;10.05;;;3.50;;
59207;SDS011;44977;53.132;6.408;2023-05-29T13:09:46;11.77;;;2.90;;
59207;SDS011;44977;53.132;6.408;2023-05-29T13:14:47;12.35;;;3.53;;
59207;SDS011;44977;53.132;6.408;2023-05-29T13:19:47;12.20;;;3.33;;
59207;SDS011;44977;53.132;6.408;2023-05-29T13:24:48;13.20;;;3.58;;
59207;SDS011;44977;53.132;6.408;2023-05-29T13:29:49;13.02;;;3.30;;
59207;SDS011;44977;53.132;6.408;2023-05-29T13:34:50;12.73;;;3.40;;
59207;SDS011;44977;53.132;6.408;2023-05-29T13:39:51;11.27;;;3.28;;
59207;SDS011;44977;53.132;6.408;2023-05-29T13:44:52;10.80;;;2.80;;
59207;SDS011;44977;53.132;6.408;2023-05-29T13:49:53;10.40;;;2.53;;
59207;SDS011;44977;53.132;6.408;2023-05-29T13:54:54;10.50;;;3.00;;
59207;SDS011;44977;53.132;6.408;2023-05-29T13:59:55;12.70;;;3.67;;
59207;SDS011;44977;53.132;6.408;2023-05-29T14:04:56;13.75;;;3.22;;
59207;SDS011;44977;53.132;6.408;2023-05-29T14:09:56;11.35;;;2.92;;
59207;SDS011;44977;53.132;6.408;2023-05-29T14:14:57;11.88;;;3.28;;
59207;SDS011;44977;53.132;6.408;2023-05-29T14:19:58;13.68;;;3.22;;
59207;SDS011;44977;53.132;6.408;2023-05-29T14:25:01;12.75;;;2.90;;
59207;SDS011;44977;53.132;6.408;2023-05-29T14:30:04;11.25;;;2.58;;
59207;SDS011;44977;53.132;6.408;2023-05-29T14:35:06;11.77;;;3.05;;
59207;SDS011;44977;53.132;6.408;2023-05-29T14:40:07;11.07;;;2.53;;
59207;SDS011;44977;53.132;6.408;2023-05-29T14:45:08;10.20;;;2.63;;
59207;SDS011;44977;53.132;6.408;2023-05-29T14:50:09;12.60;;;3.30;;
59207;SDS011;44977;53.132;6.408;2023-05-29T14:55:10;10.38;;;2.65;;
59207;SDS011;44977;53.132;6.408;2023-05-29T15:00:11;9.93;;;3.35;;
59207;SDS011;44977;53.132;6.408;2023-05-29T15:05:12;11.40;;;2.80;;
59207;SDS011;44977;53.132;6.408;2023-05-29T15:10:13;13.38;;;3.40;;
59207;SDS011;44977;53.132;6.408;2023-05-29T15:15:13;11.10;;;3.17;;
59207;SDS011;44977;53.132;6.408;2023-05-29T15:20:14;11.55;;;2.85;;
59207;SDS011;44977;53.132;6.408;2023-05-29T15:25:17;10.00;;;2.80;;
59207;SDS011;44977;53.132;6.408;2023-05-29T15:30:19;9.80;;;2.70;;
59207;SDS011;44977;53.132;6.408;2023-05-29T15:35:20;13.05;;;2.92;;
59207;SDS011;44977;53.132;6.408;2023-05-29T15:40:21;9.55;;;2.50;;
59207;SDS011;44977;53.132;6.408;2023-05-29T15:45:21;11.70;;;2.78;;
59207;SDS011;44977;53.132;6.408;2023-05-29T15:50:22;9.25;;;2.55;;
59207;SDS011;44977;53.132;6.408;2023-05-29T15:55:23;11.30;;;2.90;;
59207;SDS011;44977;53.132;6.408;2023-05-29T16:00:24;12.38;;;3.00;;
59207;SDS011;44977;53.132;6.408;2023-05-29T16:05:25;12.30;;;2.92;;
59207;SDS011;44977;53.132;6.408;2023-05-29T16:10:27;12.57;;;3.00;;
59207;SDS011;44977;53.132;6.408;2023-05-29T16:15:31;10.48;;;2.75;;
59207;SDS011;44977;53.132;6.408;2023-05-29T16:20:32;11.48;;;3.17;;
59207;SDS011;44977;53.132;6.408;2023-05-29T16:25:33;13.80;;;3.55;;
59207;SDS011;44977;53.132;6.408;2023-05-29T16:30:37;13.75;;;3.33;;
59207;SDS011;44977;53.132;6.408;2023-05-29T16:35:38;12.25;;;3.75;;
59207;SDS011;44977;53.132;6.408;2023-05-29T16:40:38;13.95;;;3.50;;
59207;SDS011;44977;53.132;6.408;2023-05-29T16:45:39;13.55;;;3.03;;
59207;SDS011;44977;53.132;6.408;2023-05-29T16:50:40;14.63;;;3.72;;
59207;SDS011;44977;53.132;6.408;2023-05-29T16:55:40;14.30;;;3.00;;
59207;SDS011;44977;53.132;6.408;2023-05-29T17:00:41;10.40;;;2.90;;
59207;SDS011;44977;53.132;6.408;2023-05-29T17:05:42;15.27;;;3.90;;
59207;SDS011;44977;53.132;6.408;2023-05-29T17:10:45;14.25;;;3.58;;
59207;SDS011;44977;53.132;6.408;2023-05-29T17:15:47;10.65;;;2.78;;
59207;SDS011;44977;53.132;6.408;2023-05-29T17:20:48;13.05;;;3.08;;
59207;SDS011;44977;53.132;6.408;2023-05-29T17:25:49;14.40;;;3.10;;
59207;SDS011;44977;53.132;6.408;2023-05-29T17:30:50;14.57;;;3.17;;
59207;SDS011;44977;53.132;6.408;2023-05-29T17:35:50;12.25;;;3.10;;
59207;SDS011;44977;53.132;6.408;2023-05-29T17:40:51;14.98;;;3.70;;
59207;SDS011;44977;53.132;6.408;2023-05-29T17:45:52;12.90;;;3.00;;
59207;SDS011;44977;53.132;6.408;2023-05-29T17:50:53;13.93;;;3.10;;
59207;SDS011;44977;53.132;6.408;2023-05-29T17:55:53;9.90;;;2.50;;
59207;SDS011;44977;53.132;6.408;2023-05-29T18:00:55;12.57;;;2.97;;
59207;SDS011;44977;53.132;6.408;2023-05-29T18:05:56;14.63;;;3.10;;
59207;SDS011;44977;53.132;6.408;2023-05-29T18:10:57;13.82;;;3.30;;
59207;SDS011;44977;53.132;6.408;2023-05-29T18:15:58;15.65;;;3.63;;
59207;SDS011;44977;53.132;6.408;2023-05-29T18:20:58;11.73;;;3.15;;
59207;SDS011;44977;53.132;6.408;2023-05-29T18:25:59;13.20;;;3.75;;
59207;SDS011;44977;53.132;6.408;2023-05-29T18:31:00;12.77;;;3.55;;
59207;SDS011;44977;53.132;6.408;2023-05-29T18:36:01;11.98;;;3.30;;
59207;SDS011;44977;53.132;6.408;2023-05-29T18:41:01;12.57;;;3.38;;
59207;SDS011;44977;53.132;6.408;2023-05-29T18:46:02;15.00;;;3.40;;
59207;SDS011;44977;53.132;6.408;2023-05-29T18:51:03;13.63;;;3.20;;
59207;SDS011;44977;53.132;6.408;2023-05-29T18:56:05;13.35;;;3.13;;
59207;SDS011;44977;53.132;6.408;2023-05-29T19:01:06;13.57;;;3.50;;
59207;SDS011;44977;53.132;6.408;2023-05-29T19:06:07;14.77;;;3.40;;
59207;SDS011;44977;53.132;6.408;2023-05-29T19:11:08;14.23;;;3.30;;
59207;SDS011;44977;53.132;6.408;2023-05-29T19:16:11;14.10;;;3.63;;
59207;SDS011;44977;53.132;6.408;2023-05-29T19:21:12;13.45;;;3.60;;
59207;SDS011;44977;53.132;6.408;2023-05-29T19:26:13;14.88;;;3.60;;
59207;SDS011;44977;53.132;6.408;2023-05-29T19:31:13;12.18;;;3.28;;
59207;SDS011;44977;53.132;6.408;2023-05-29T19:36:14;14.52;;;3.53;;
59207;SDS011;44977;53.132;6.408;2023-05-29T19:41:15;13.05;;;3.28;;
59207;SDS011;44977;53.132;6.408;2023-05-29T19:46:15;14.40;;;3.47;;
59207;SDS011;44977;53.132;6.408;2023-05-29T19:51:16;11.10;;;3.33;;
59207;SDS011;44977;53.132;6.408;2023-05-29T19:56:17;13.63;;;3.50;;
59207;SDS011;44977;53.132;6.408;2023-05-29T20:01:17;11.90;;;3.78;;
59207;SDS011;44977;53.132;6.408;2023-05-29T20:06:18;13.52;;;3.60;;
59207;SDS011;44977;53.132;6.408;2023-05-29T20:11:19;12.23;;;3.75;;
59207;SDS011;44977;53.132;6.408;2023-05-29T20:16:20;15.93;;;3.75;;
59207;SDS011;44977;53.132;6.408;2023-05-29T20:21:24;14.77;;;3.85;;
59207;SDS011;44977;53.132;6.408;2023-05-29T20:26:25;16.17;;;4.28;;
59207;SDS011;44977;53.132;6.408;2023-05-29T20:31:27;15.55;;;4.00;;
59207;SDS011;44977;53.132;6.408;2023-05-29T20:36:27;16.33;;;3.80;;
59207;SDS011;44977;53.132;6.408;2023-05-29T20:41:30;16.20;;;4.22;;
59207;SDS011;44977;53.132;6.408;2023-05-29T20:46:32;14.13;;;4.07;;
59207;SDS011;44977;53.132;6.408;2023-05-29T20:51:36;15.88;;;4.63;;
59207;SDS011;44977;53.132;6.408;2023-05-29T20:56:37;15.75;;;4.10;;
59207;SDS011;44977;53.132;6.408;2023-05-29T21:01:39;17.42;;;4.28;;
59207;SDS011;44977;53.132;6.408;2023-05-29T21:06:40;14.30;;;4.38;;
59207;SDS011;44977;53.132;6.408;2023-05-29T21:11:41;15.25;;;4.57;;
59207;SDS011;44977;53.132;6.408;2023-05-29T21:16:41;19.67;;;4.22;;
59207;SDS011;44977;53.132;6.408;2023-05-29T21:21:42;17.88;;;4.20;;
59207;SDS011;44977;53.132;6.408;2023-05-29T21:26:43;13.75;;;3.85;;
59207;SDS011;44977;53.132;6.408;2023-05-29T21:31:44;15.52;;;4.25;;
59207;SDS011;44977;53.132;6.408;2023-05-29T21:36:45;13.05;;;4.07;;
59207;SDS011;44977;53.132;6.408;2023-05-29T21:41:46;13.68;;;4.00;;
59207;SDS011;44977;53.132;6.408;2023-05-29T21:46:46;18.13;;;4.45;;
59207;SDS011;44977;53.132;6.408;2023-05-29T21:51:47;16.30;;;4.22;;
59207;SDS011;44977;53.132;6.408;2023-05-29T21:56:48;14.57;;;4.57;;
59207;SDS011;44977;53.132;6.408;2023-05-29T22:01:49;15.30;;;4.18;;
59207;SDS011;44977;53.132;6.408;2023-05-29T22:06:50;14.95;;;4.32;;
59207;SDS011;44977;53.132;6.408;2023-05-29T22:11:51;14.13;;;4.57;;
59207;SDS011;44977;53.132;6.408;2023-05-29T22:16:53;17.45;;;4.10;;
59207;SDS011;44977;53.132;6.408;2023-05-29T22:21:54;16.23;;;4.32;;
59207;SDS011;44977;53.132;6.408;2023-05-29T22:26:55;17.08;;;4.28;;
59207;SDS011;44977;53.132;6.408;2023-05-29T22:31:56;12.82;;;4.00;;
59207;SDS011;44977;53.132;6.408;2023-05-29T22:36:56;15.00;;;4.40;;
59207;SDS011;44977;53.132;6.408;2023-05-29T22:41:57;13.05;;;4.10;;
59207;SDS011;44977;53.132;6.408;2023-05-29T22:46:58;13.27;;;4.43;;
59207;SDS011;44977;53.132;6.408;2023-05-29T22:51:58;15.73;;;4.70;;
59207;SDS011;44977;53.132;6.408;2023-05-29T22:57:01;14.68;;;4.60;;
59207;SDS011;44977;53.132;6.408;2023-05-29T23:02:03;14.27;;;4.28;;
59207;SDS011;44977;53.132;6.408;2023-05-29T23:07:04;17.05;;;4.53;;
59207;SDS011;44977;53.132;6.408;2023-05-29T23:12:05;13.30;;;4.68;;
59207;SDS011;44977;53.132;6.408;2023-05-29T23:17:08;11.30;;;4.25;;
59207;SDS011;44977;53.132;6.408;2023-05-29T23:22:09;13.38;;;4.60;;
59207;SDS011;44977;53.132;6.408;2023-05-29T23:27:10;14.23;;;4.28;;
59207;SDS011;44977;53.132;6.408;2023-05-29T23:32:11;15.40;;;4.80;;
59207;SDS011;44977;53.132;6.408;2023-05-29T23:37:13;14.40;;;4.22;;
59207;SDS011;44977;53.132;6.408;2023-05-29T23:42:14;14.25;;;4.53;;
59207;SDS011;44977;53.132;6.408;2023-05-29T23:47:15;14.15;;;4.30;;
59207;SDS011;44977;53.132;6.408;2023-05-29T23:52:15;12.23;;;4.07;;
59207;SDS011;44977;53.132;6.408;2023-05-29T23:57:16;13.50;;;4.07;;
